Skip Navigation Links
NOAA logo - Click to go to the NOAA homepage
NOAA's National Weather Service
Alaska Aviation Weather Unit
  NWS logo - Click to go to the NWS homepage
Left Navbar Graphic     19 AKDT = 03 GMT

   
NOAA is celebrating 200 years of science, service, and stewardship. Visit the NOAA 200th celebration Web site to learn more.
USA.gov is the U.S. Government's official Web portal to all Federal, state and local government Web resources and services.
Facebook
NWS on Facebook

Important Change Regarding the AAWU Web Presence

 

Over the last several months, the AAWU has been working to navigate its webpages to a nationally supported server. Security, as well as other needs, have necessitated the change.  We have been given an extension for the site changeover while we diligently work at addressing feedback received. As of July 14, 2017, aawu.arh.noaa.gov will be discontinued. The new AAWU web address is weather.gov/aawu. It is now live and will run in-parallel with the old site until it is discontinued on July 14, 2017. Please continue to send any feedback or questions regarding the new webpages to nws.ar.aawu.webauthors@noaa.gov.  Thank you for your patience during this time of transition.
AAWU Home :: Display TAF Add Bookmark
TAF PAUN 290127Z 2901/2924 15006KT P6SM -RA BKN027 OVC035
     FM291500 09008KT P6SM OVC050=
PAUN 282109Z AUTO 14017G22KT 10SM BKN033 OVC040 14/08 A2974 RMK
     AO2=

METAR PAUN 282156Z AUTO 15014G20KT 8SM -RA BKN028 BKN037 OVC049 13/09
     A2975 RMK AO2 RAB54 SLP080 P0000 T01280089=

SPECI PAUN 282212Z AUTO 15011KT 10SM -RA FEW028 BKN040 OVC060 12/10
     A2976 RMK AO2 P0000=

METAR PAUN 282356Z AUTO 16007KT 10SM BKN030 BKN070 OVC080 13/08 A2978
     RMK AO2 SLP088 60000 T01280083 10139 20122 51012=

PAUN 290005Z AUTO 13012KT 10SM BKN028 BKN070 OVC080 13/09 A2978
     RMK AO2=

SPECI PAUN 290024Z AUTO 14007KT 10SM SCT028 OVC048 13/09 A2978 RMK
 AO2=

METAR PAUN 290056Z AUTO 12009KT 6SM -RA BR BKN034 OVC042 12/09 A2978 RMK
     AO2 RAB41 SLP090 P0000 T01170094=

PAUN 290119Z AUTO 15006KT 10SM -RA BKN027 OVC035 12/10 A2978 RMK
     AO2 P0001=

SPECI PAUN 290138Z AUTO 13005KT 10SM -RA SCT027 BKN048 OVC055 12/10
 A2978 RMK AO2 P0001=

METAR PAUN 290156Z AUTO 13003KT 10SM SCT030 BKN048 OVC055 12/10 A2978
     RMK AO2 RAE44 SLP089 P0001 T01220100=

METAR PAUN 290256Z AUTO 12003KT 9SM -RA SCT028 BKN033 OVC046 13/11 A2978
     RMK AO2 RAB03 SLP090 P0001 60002 T01280111 51002=

SPECI PAUN 290306Z AUTO 19011KT 10SM -RA SCT014 BKN025 OVC048 12/10
     A2978 RMK AO2 P0001=

SPECI PAUN 290335Z AUTO 18009KT 9SM -RA SCT027 BKN039 OVC055 12/09 A2979
     RMK AO2 P0007=


NOAA's National Weather Service
Alaska Aviation Weather Unit
6930 Sand Lake Road
Anchorage, AK 99502-1845
Disclaimer
Credits
Glossary
Privacy Policy
About Us
Career Opportunities
Contact AAWU Internet Services Site last modified: April, 17th 2012